sensor_id;sensor_type;location;lat;lon;timestamp;temperature;humidity
15969;DHT22;8085;53.472;9.794;2022-10-16T00:00:37;13.60;99.90
15969;DHT22;8085;53.472;9.794;2022-10-16T00:03:05;13.60;99.90
15969;DHT22;8085;53.472;9.794;2022-10-16T00:05:33;13.60;99.90
15969;DHT22;8085;53.472;9.794;2022-10-16T00:08:04;13.60;99.90
15969;DHT22;8085;53.472;9.794;2022-10-16T00:10:32;13.60;99.90
15969;DHT22;8085;53.472;9.794;2022-10-16T00:12:59;13.60;99.90
15969;DHT22;8085;53.472;9.794;2022-10-16T00:15:26;13.60;99.90
15969;DHT22;8085;53.472;9.794;2022-10-16T00:17:53;13.60;99.90
15969;DHT22;8085;53.472;9.794;2022-10-16T00:20:19;13.60;99.90
15969;DHT22;8085;53.472;9.794;2022-10-16T00:22:46;13.60;99.90
15969;DHT22;8085;53.472;9.794;2022-10-16T00:25:13;13.60;99.90
15969;DHT22;8085;53.472;9.794;2022-10-16T00:27:41;13.60;99.90
15969;DHT22;8085;53.472;9.794;2022-10-16T00:30:09;13.60;99.90
15969;DHT22;8085;53.472;9.794;2022-10-16T00:32:35;13.60;99.90
15969;DHT22;8085;53.472;9.794;2022-10-16T00:35:02;13.50;99.90
15969;DHT22;8085;53.472;9.794;2022-10-16T00:37:30;13.60;99.90
15969;DHT22;8085;53.472;9.794;2022-10-16T00:39:56;13.50;99.90
15969;DHT22;8085;53.472;9.794;2022-10-16T00:42:23;13.50;99.90
15969;DHT22;8085;53.472;9.794;2022-10-16T00:44:53;13.50;99.90
15969;DHT22;8085;53.472;9.794;2022-10-16T00:47:25;13.50;99.90
15969;DHT22;8085;53.472;9.794;2022-10-16T00:49:58;13.50;99.90
15969;DHT22;8085;53.472;9.794;2022-10-16T00:52:25;13.50;99.90
15969;DHT22;8085;53.472;9.794;2022-10-16T00:54:52;13.50;99.90
15969;DHT22;8085;53.472;9.794;2022-10-16T00:57:20;13.50;99.90
15969;DHT22;8085;53.472;9.794;2022-10-16T00:59:47;13.50;99.90
15969;DHT22;8085;53.472;9.794;2022-10-16T01:02:16;13.40;99.90
15969;DHT22;8085;53.472;9.794;2022-10-16T01:04:45;13.40;99.90
15969;DHT22;8085;53.472;9.794;2022-10-16T01:07:18;13.40;99.90
15969;DHT22;8085;53.472;9.794;2022-10-16T01:09:57;13.40;99.90
15969;DHT22;8085;53.472;9.794;2022-10-16T01:12:33;13.40;99.90
15969;DHT22;8085;53.472;9.794;2022-10-16T01:15:10;13.40;99.90
15969;DHT22;8085;53.472;9.794;2022-10-16T01:17:43;13.30;99.90
15969;DHT22;8085;53.472;9.794;2022-10-16T01:20:18;13.30;99.90
15969;DHT22;8085;53.472;9.794;2022-10-16T01:22:55;13.30;99.90
15969;DHT22;8085;53.472;9.794;2022-10-16T01:25:34;13.30;99.90
15969;DHT22;8085;53.472;9.794;2022-10-16T01:28:06;13.20;99.90
15969;DHT22;8085;53.472;9.794;2022-10-16T01:30:36;13.20;99.90
15969;DHT22;8085;53.472;9.794;2022-10-16T01:33:09;13.20;99.90
15969;DHT22;8085;53.472;9.794;2022-10-16T01:35:39;13.10;99.90
15969;DHT22;8085;53.472;9.794;2022-10-16T01:38:11;13.10;99.90
15969;DHT22;8085;53.472;9.794;2022-10-16T01:40:43;13.10;99.90
15969;DHT22;8085;53.472;9.794;2022-10-16T01:43:15;13.00;99.90
15969;DHT22;8085;53.472;9.794;2022-10-16T01:45:45;12.90;99.90
15969;DHT22;8085;53.472;9.794;2022-10-16T01:48:15;12.90;99.90
15969;DHT22;8085;53.472;9.794;2022-10-16T01:50:44;12.90;99.90
15969;DHT22;8085;53.472;9.794;2022-10-16T01:53:16;12.90;99.90
15969;DHT22;8085;53.472;9.794;2022-10-16T01:55:46;12.90;99.90
15969;DHT22;8085;53.472;9.794;2022-10-16T01:58:16;12.90;99.90
15969;DHT22;8085;53.472;9.794;2022-10-16T02:00:44;12.90;99.90
15969;DHT22;8085;53.472;9.794;2022-10-16T02:03:13;12.90;99.90
15969;DHT22;8085;53.472;9.794;2022-10-16T02:05:45;12.90;99.90
15969;DHT22;8085;53.472;9.794;2022-10-16T02:08:12;12.80;99.90
15969;DHT22;8085;53.472;9.794;2022-10-16T02:10:40;12.80;99.90
15969;DHT22;8085;53.472;9.794;2022-10-16T02:13:11;12.80;99.90
15969;DHT22;8085;53.472;9.794;2022-10-16T02:15:40;12.80;99.90
15969;DHT22;8085;53.472;9.794;2022-10-16T02:18:07;12.80;99.90
15969;DHT22;8085;53.472;9.794;2022-10-16T02:20:42;12.80;99.90
15969;DHT22;8085;53.472;9.794;2022-10-16T02:23:19;12.80;99.90
15969;DHT22;8085;53.472;9.794;2022-10-16T02:25:47;12.80;99.90
15969;DHT22;8085;53.472;9.794;2022-10-16T02:28:19;12.70;99.90
15969;DHT22;8085;53.472;9.794;2022-10-16T02:30:51;12.70;99.90
15969;DHT22;8085;53.472;9.794;2022-10-16T02:33:21;12.70;99.90
15969;DHT22;8085;53.472;9.794;2022-10-16T02:35:49;12.70;99.90
15969;DHT22;8085;53.472;9.794;2022-10-16T02:38:18;12.60;99.90
15969;DHT22;8085;53.472;9.794;2022-10-16T02:40:46;12.60;99.90
15969;DHT22;8085;53.472;9.794;2022-10-16T02:43:13;12.60;99.90
15969;DHT22;8085;53.472;9.794;2022-10-16T02:45:40;12.60;99.90
15969;DHT22;8085;53.472;9.794;2022-10-16T02:48:08;12.60;99.90
15969;DHT22;8085;53.472;9.794;2022-10-16T02:50:35;12.50;99.90
15969;DHT22;8085;53.472;9.794;2022-10-16T02:53:02;12.50;99.90
15969;DHT22;8085;53.472;9.794;2022-10-16T02:55:29;12.50;99.90
15969;DHT22;8085;53.472;9.794;2022-10-16T02:57:55;12.40;99.90
15969;DHT22;8085;53.472;9.794;2022-10-16T03:00:22;12.40;99.90
15969;DHT22;8085;53.472;9.794;2022-10-16T03:02:50;12.40;99.90
15969;DHT22;8085;53.472;9.794;2022-10-16T03:05:18;12.40;99.90
15969;DHT22;8085;53.472;9.794;2022-10-16T03:07:45;12.30;99.90
15969;DHT22;8085;53.472;9.794;2022-10-16T03:10:11;12.30;99.90
15969;DHT22;8085;53.472;9.794;2022-10-16T03:12:38;12.30;99.90
15969;DHT22;8085;53.472;9.794;2022-10-16T03:15:06;12.30;99.90
15969;DHT22;8085;53.472;9.794;2022-10-16T03:17:33;12.20;99.90
15969;DHT22;8085;53.472;9.794;2022-10-16T03:20:00;12.20;99.90
15969;DHT22;8085;53.472;9.794;2022-10-16T03:22:28;12.20;99.90
15969;DHT22;8085;53.472;9.794;2022-10-16T03:24:55;12.20;99.90
15969;DHT22;8085;53.472;9.794;2022-10-16T03:27:22;12.20;99.90
15969;DHT22;8085;53.472;9.794;2022-10-16T03:29:49;12.20;99.90
15969;DHT22;8085;53.472;9.794;2022-10-16T03:32:16;12.20;99.90
15969;DHT22;8085;53.472;9.794;2022-10-16T03:34:43;12.20;99.90
15969;DHT22;8085;53.472;9.794;2022-10-16T03:37:10;12.10;99.90
15969;DHT22;8085;53.472;9.794;2022-10-16T03:39:39;12.10;99.90
15969;DHT22;8085;53.472;9.794;2022-10-16T03:42:05;12.20;99.90
15969;DHT22;8085;53.472;9.794;2022-10-16T03:44:32;12.20;99.90
15969;DHT22;8085;53.472;9.794;2022-10-16T03:46:59;12.10;99.90
15969;DHT22;8085;53.472;9.794;2022-10-16T03:49:26;12.20;99.90
15969;DHT22;8085;53.472;9.794;2022-10-16T03:51:53;12.10;99.90
15969;DHT22;8085;53.472;9.794;2022-10-16T03:54:19;12.10;99.90
15969;DHT22;8085;53.472;9.794;2022-10-16T03:56:48;12.10;99.90
15969;DHT22;8085;53.472;9.794;2022-10-16T03:59:15;12.10;99.90
15969;DHT22;8085;53.472;9.794;2022-10-16T04:01:42;12.10;99.90
15969;DHT22;8085;53.472;9.794;2022-10-16T04:04:09;12.10;99.90
15969;DHT22;8085;53.472;9.794;2022-10-16T04:06:36;12.10;99.90
15969;DHT22;8085;53.472;9.794;2022-10-16T04:09:03;12.00;99.90
15969;DHT22;8085;53.472;9.794;2022-10-16T04:11:30;12.10;99.90
15969;DHT22;8085;53.472;9.794;2022-10-16T04:13:58;12.00;99.90
15969;DHT22;8085;53.472;9.794;2022-10-16T04:16:25;12.00;99.90
15969;DHT22;8085;53.472;9.794;2022-10-16T04:18:51;12.00;99.90
15969;DHT22;8085;53.472;9.794;2022-10-16T04:21:18;12.00;99.90
15969;DHT22;8085;53.472;9.794;2022-10-16T04:23:45;12.00;99.90
15969;DHT22;8085;53.472;9.794;2022-10-16T04:26:12;12.00;99.90
15969;DHT22;8085;53.472;9.794;2022-10-16T04:28:39;12.00;99.90
15969;DHT22;8085;53.472;9.794;2022-10-16T04:31:07;12.00;99.90
15969;DHT22;8085;53.472;9.794;2022-10-16T04:33:34;12.00;99.90
15969;DHT22;8085;53.472;9.794;2022-10-16T04:36:01;12.00;99.90
15969;DHT22;8085;53.472;9.794;2022-10-16T04:38:28;12.00;99.90
15969;DHT22;8085;53.472;9.794;2022-10-16T04:40:55;12.00;99.90
15969;DHT22;8085;53.472;9.794;2022-10-16T04:43:22;12.00;99.90
15969;DHT22;8085;53.472;9.794;2022-10-16T04:45:49;11.90;99.90
15969;DHT22;8085;53.472;9.794;2022-10-16T04:48:18;11.90;99.90
15969;DHT22;8085;53.472;9.794;2022-10-16T04:50:45;11.90;99.90
15969;DHT22;8085;53.472;9.794;2022-10-16T04:53:12;11.90;99.90
15969;DHT22;8085;53.472;9.794;2022-10-16T04:55:39;11.90;99.90
15969;DHT22;8085;53.472;9.794;2022-10-16T04:58:07;11.90;99.90
15969;DHT22;8085;53.472;9.794;2022-10-16T05:00:34;11.90;99.90
15969;DHT22;8085;53.472;9.794;2022-10-16T05:03:01;11.90;99.90
15969;DHT22;8085;53.472;9.794;2022-10-16T05:05:32;11.90;99.90
15969;DHT22;8085;53.472;9.794;2022-10-16T05:07:59;11.90;99.90
15969;DHT22;8085;53.472;9.794;2022-10-16T05:10:26;11.90;99.90
15969;DHT22;8085;53.472;9.794;2022-10-16T05:12:53;11.90;99.90
15969;DHT22;8085;53.472;9.794;2022-10-16T05:15:20;11.90;99.90
15969;DHT22;8085;53.472;9.794;2022-10-16T05:17:52;11.90;99.90
15969;DHT22;8085;53.472;9.794;2022-10-16T05:20:19;11.90;99.90
15969;DHT22;8085;53.472;9.794;2022-10-16T05:22:47;11.90;99.90
15969;DHT22;8085;53.472;9.794;2022-10-16T05:25:14;11.90;99.90
15969;DHT22;8085;53.472;9.794;2022-10-16T05:27:41;11.90;99.90
15969;DHT22;8085;53.472;9.794;2022-10-16T05:30:08;11.90;99.90
15969;DHT22;8085;53.472;9.794;2022-10-16T05:32:35;11.90;99.90
15969;DHT22;8085;53.472;9.794;2022-10-16T05:35:02;11.90;99.90
15969;DHT22;8085;53.472;9.794;2022-10-16T05:37:29;11.90;99.90
15969;DHT22;8085;53.472;9.794;2022-10-16T05:39:58;12.00;99.90
15969;DHT22;8085;53.472;9.794;2022-10-16T05:42:24;11.90;99.90
15969;DHT22;8085;53.472;9.794;2022-10-16T05:44:51;11.90;99.90
15969;DHT22;8085;53.472;9.794;2022-10-16T05:47:18;11.90;99.90
15969;DHT22;8085;53.472;9.794;2022-10-16T05:49:46;11.90;99.90
15969;DHT22;8085;53.472;9.794;2022-10-16T05:52:13;12.00;99.90
15969;DHT22;8085;53.472;9.794;2022-10-16T05:54:39;12.00;99.90
15969;DHT22;8085;53.472;9.794;2022-10-16T05:57:08;12.00;99.90
15969;DHT22;8085;53.472;9.794;2022-10-16T05:59:34;12.00;99.90
15969;DHT22;8085;53.472;9.794;2022-10-16T06:02:02;12.00;99.90
15969;DHT22;8085;53.472;9.794;2022-10-16T06:04:29;12.00;99.90
15969;DHT22;8085;53.472;9.794;2022-10-16T06:06:58;12.00;99.90
15969;DHT22;8085;53.472;9.794;2022-10-16T06:09:26;12.00;99.90
15969;DHT22;8085;53.472;9.794;2022-10-16T06:11:53;12.00;99.90
15969;DHT22;8085;53.472;9.794;2022-10-16T06:14:21;12.10;99.90
15969;DHT22;8085;53.472;9.794;2022-10-16T06:16:48;12.00;99.90
15969;DHT22;8085;53.472;9.794;2022-10-16T06:19:15;12.10;99.90
15969;DHT22;8085;53.472;9.794;2022-10-16T06:21:43;12.10;99.90
15969;DHT22;8085;53.472;9.794;2022-10-16T06:24:10;12.10;99.90
15969;DHT22;8085;53.472;9.794;2022-10-16T06:26:37;12.10;99.90
15969;DHT22;8085;53.472;9.794;2022-10-16T06:29:04;12.10;99.90
15969;DHT22;8085;53.472;9.794;2022-10-16T06:31:33;12.10;99.90
15969;DHT22;8085;53.472;9.794;2022-10-16T06:34:00;12.10;99.90
15969;DHT22;8085;53.472;9.794;2022-10-16T06:36:27;12.10;99.90
15969;DHT22;8085;53.472;9.794;2022-10-16T06:38:54;12.20;99.90
15969;DHT22;8085;53.472;9.794;2022-10-16T06:41:22;12.20;99.90
15969;DHT22;8085;53.472;9.794;2022-10-16T06:43:50;12.20;99.90
15969;DHT22;8085;53.472;9.794;2022-10-16T06:46:20;12.20;99.90
15969;DHT22;8085;53.472;9.794;2022-10-16T06:48:49;12.30;99.90
15969;DHT22;8085;53.472;9.794;2022-10-16T06:51:16;12.30;99.90
15969;DHT22;8085;53.472;9.794;2022-10-16T06:53:45;12.40;99.90
15969;DHT22;8085;53.472;9.794;2022-10-16T06:56:14;12.40;99.90
15969;DHT22;8085;53.472;9.794;2022-10-16T06:58:42;12.50;99.90
15969;DHT22;8085;53.472;9.794;2022-10-16T07:01:10;12.60;99.90
15969;DHT22;8085;53.472;9.794;2022-10-16T07:03:37;12.70;99.90
15969;DHT22;8085;53.472;9.794;2022-10-16T07:06:07;12.90;99.90
15969;DHT22;8085;53.472;9.794;2022-10-16T07:08:36;13.00;99.90
15969;DHT22;8085;53.472;9.794;2022-10-16T07:11:05;13.10;99.90
15969;DHT22;8085;53.472;9.794;2022-10-16T07:13:33;13.10;99.90
15969;DHT22;8085;53.472;9.794;2022-10-16T07:16:04;13.20;99.90
15969;DHT22;8085;53.472;9.794;2022-10-16T07:18:31;13.20;99.90
15969;DHT22;8085;53.472;9.794;2022-10-16T07:21:04;13.30;99.90
15969;DHT22;8085;53.472;9.794;2022-10-16T07:23:32;13.20;99.90
15969;DHT22;8085;53.472;9.794;2022-10-16T07:25:59;13.20;99.90
15969;DHT22;8085;53.472;9.794;2022-10-16T07:28:26;13.20;99.90
15969;DHT22;8085;53.472;9.794;2022-10-16T07:30:52;13.20;99.90
15969;DHT22;8085;53.472;9.794;2022-10-16T07:33:19;13.20;99.90
15969;DHT22;8085;53.472;9.794;2022-10-16T07:35:50;13.30;99.90
15969;DHT22;8085;53.472;9.794;2022-10-16T07:38:17;13.30;99.90
15969;DHT22;8085;53.472;9.794;2022-10-16T07:40:46;13.40;99.90
15969;DHT22;8085;53.472;9.794;2022-10-16T07:43:12;13.50;99.90
15969;DHT22;8085;53.472;9.794;2022-10-16T07:45:47;13.60;99.90
15969;DHT22;8085;53.472;9.794;2022-10-16T07:48:15;13.60;99.90
15969;DHT22;8085;53.472;9.794;2022-10-16T07:50:41;13.70;99.90
15969;DHT22;8085;53.472;9.794;2022-10-16T07:53:09;13.70;99.90
15969;DHT22;8085;53.472;9.794;2022-10-16T07:55:36;13.80;99.90
15969;DHT22;8085;53.472;9.794;2022-10-16T07:58:04;13.80;99.90
15969;DHT22;8085;53.472;9.794;2022-10-16T08:00:32;13.90;99.90
15969;DHT22;8085;53.472;9.794;2022-10-16T08:02:59;14.00;99.90
15969;DHT22;8085;53.472;9.794;2022-10-16T08:05:26;14.00;99.90
15969;DHT22;8085;53.472;9.794;2022-10-16T08:07:53;14.10;99.90
15969;DHT22;8085;53.472;9.794;2022-10-16T08:10:22;14.10;99.90
15969;DHT22;8085;53.472;9.794;2022-10-16T08:12:50;14.10;99.90
15969;DHT22;8085;53.472;9.794;2022-10-16T08:15:18;14.10;99.90
15969;DHT22;8085;53.472;9.794;2022-10-16T08:17:54;14.00;99.90
15969;DHT22;8085;53.472;9.794;2022-10-16T08:20:21;14.10;99.90
15969;DHT22;8085;53.472;9.794;2022-10-16T08:22:48;14.10;99.90
15969;DHT22;8085;53.472;9.794;2022-10-16T08:25:15;14.10;99.90
15969;DHT22;8085;53.472;9.794;2022-10-16T08:27:42;14.30;99.90
15969;DHT22;8085;53.472;9.794;2022-10-16T08:30:11;14.40;99.90
15969;DHT22;8085;53.472;9.794;2022-10-16T08:32:39;14.40;99.90
15969;DHT22;8085;53.472;9.794;2022-10-16T08:35:07;14.40;99.90
15969;DHT22;8085;53.472;9.794;2022-10-16T08:37:34;14.60;99.90
15969;DHT22;8085;53.472;9.794;2022-10-16T08:40:01;14.70;99.90
15969;DHT22;8085;53.472;9.794;2022-10-16T08:42:44;14.80;99.90
15969;DHT22;8085;53.472;9.794;2022-10-16T08:45:21;14.90;99.90
15969;DHT22;8085;53.472;9.794;2022-10-16T08:48:04;15.00;99.90
15969;DHT22;8085;53.472;9.794;2022-10-16T08:50:33;15.10;99.90
15969;DHT22;8085;53.472;9.794;2022-10-16T08:53:04;15.10;99.90
15969;DHT22;8085;53.472;9.794;2022-10-16T08:55:36;15.20;99.90
15969;DHT22;8085;53.472;9.794;2022-10-16T08:58:12;15.40;99.90
15969;DHT22;8085;53.472;9.794;2022-10-16T09:00:39;15.40;99.90
15969;DHT22;8085;53.472;9.794;2022-10-16T09:03:22;15.30;99.90
15969;DHT22;8085;53.472;9.794;2022-10-16T09:06:21;15.30;99.90
15969;DHT22;8085;53.472;9.794;2022-10-16T09:09:04;15.30;99.90
15969;DHT22;8085;53.472;9.794;2022-10-16T09:11:41;15.40;99.90
15969;DHT22;8085;53.472;9.794;2022-10-16T09:14:31;15.50;99.90
15969;DHT22;8085;53.472;9.794;2022-10-16T09:17:14;15.60;99.90
15969;DHT22;8085;53.472;9.794;2022-10-16T09:19:51;15.70;99.90
15969;DHT22;8085;53.472;9.794;2022-10-16T09:22:22;15.80;99.90
15969;DHT22;8085;53.472;9.794;2022-10-16T09:24:51;15.90;99.90
15969;DHT22;8085;53.472;9.794;2022-10-16T09:27:18;15.90;98.00
15969;DHT22;8085;53.472;9.794;2022-10-16T09:29:45;16.00;92.40
15969;DHT22;8085;53.472;9.794;2022-10-16T09:32:14;16.00;92.60
15969;DHT22;8085;53.472;9.794;2022-10-16T09:34:47;16.10;91.50
15969;DHT22;8085;53.472;9.794;2022-10-16T09:37:18;15.90;94.10
15969;DHT22;8085;53.472;9.794;2022-10-16T09:39:45;15.80;98.20
15969;DHT22;8085;53.472;9.794;2022-10-16T09:42:15;15.80;98.40
15969;DHT22;8085;53.472;9.794;2022-10-16T09:44:42;15.90;98.70
15969;DHT22;8085;53.472;9.794;2022-10-16T09:47:15;15.90;99.10
15969;DHT22;8085;53.472;9.794;2022-10-16T09:49:53;15.80;99.20
15969;DHT22;8085;53.472;9.794;2022-10-16T09:52:21;15.70;99.90
15969;DHT22;8085;53.472;9.794;2022-10-16T09:54:53;15.80;99.00
15969;DHT22;8085;53.472;9.794;2022-10-16T09:57:20;15.80;99.90
15969;DHT22;8085;53.472;9.794;2022-10-16T09:59:49;15.90;99.30
15969;DHT22;8085;53.472;9.794;2022-10-16T10:02:18;15.90;99.90
15969;DHT22;8085;53.472;9.794;2022-10-16T10:04:51;16.10;98.60
15969;DHT22;8085;53.472;9.794;2022-10-16T10:07:24;16.20;92.20
15969;DHT22;8085;53.472;9.794;2022-10-16T10:09:52;16.20;94.00
15969;DHT22;8085;53.472;9.794;2022-10-16T10:12:21;16.30;93.80
15969;DHT22;8085;53.472;9.794;2022-10-16T10:14:51;16.30;92.70
15969;DHT22;8085;53.472;9.794;2022-10-16T10:17:20;16.30;92.00
15969;DHT22;8085;53.472;9.794;2022-10-16T10:19:52;16.40;90.20
15969;DHT22;8085;53.472;9.794;2022-10-16T10:22:23;16.60;81.40
15969;DHT22;8085;53.472;9.794;2022-10-16T10:24:59;16.70;82.70
15969;DHT22;8085;53.472;9.794;2022-10-16T10:27:32;16.80;64.40
15969;DHT22;8085;53.472;9.794;2022-10-16T10:30:09;16.90;60.00
15969;DHT22;8085;53.472;9.794;2022-10-16T10:32:49;17.00;60.80
15969;DHT22;8085;53.472;9.794;2022-10-16T10:35:24;17.20;28.70
15969;DHT22;8085;53.472;9.794;2022-10-16T10:38:05;17.00;30.80
15969;DHT22;8085;53.472;9.794;2022-10-16T10:40:43;16.90;47.20
15969;DHT22;8085;53.472;9.794;2022-10-16T10:43:21;16.90;45.80
15969;DHT22;8085;53.472;9.794;2022-10-16T10:45:56;16.90;35.40
15969;DHT22;8085;53.472;9.794;2022-10-16T10:48:47;16.90;35.50
15969;DHT22;8085;53.472;9.794;2022-10-16T10:51:21;17.00;42.30
15969;DHT22;8085;53.472;9.794;2022-10-16T10:53:55;17.20;24.20
15969;DHT22;8085;53.472;9.794;2022-10-16T10:56:41;17.40;1.00
15969;DHT22;8085;53.472;9.794;2022-10-16T10:59:24;17.60;1.00
15969;DHT22;8085;53.472;9.794;2022-10-16T11:01:58;17.70;1.00
15969;DHT22;8085;53.472;9.794;2022-10-16T11:04:47;17.80;1.00
15969;DHT22;8085;53.472;9.794;2022-10-16T11:07:20;18.00;1.00
15969;DHT22;8085;53.472;9.794;2022-10-16T11:09:52;18.00;1.00
15969;DHT22;8085;53.472;9.794;2022-10-16T11:12:27;18.20;1.00
15969;DHT22;8085;53.472;9.794;2022-10-16T11:15:01;18.40;1.00
15969;DHT22;8085;53.472;9.794;2022-10-16T11:17:31;18.20;1.00
15969;DHT22;8085;53.472;9.794;2022-10-16T11:20:03;18.60;1.00
15969;DHT22;8085;53.472;9.794;2022-10-16T11:22:36;18.80;1.00
15969;DHT22;8085;53.472;9.794;2022-10-16T11:25:13;18.60;1.00
15969;DHT22;8085;53.472;9.794;2022-10-16T11:27:43;18.10;1.00
15969;DHT22;8085;53.472;9.794;2022-10-16T11:30:17;18.10;1.00
15969;DHT22;8085;53.472;9.794;2022-10-16T11:33:00;18.70;1.00
15969;DHT22;8085;53.472;9.794;2022-10-16T11:35:37;19.00;1.00
15969;DHT22;8085;53.472;9.794;2022-10-16T11:38:14;18.90;99.90
15969;DHT22;8085;53.472;9.794;2022-10-16T11:40:43;18.40;1.00
15969;DHT22;8085;53.472;9.794;2022-10-16T11:43:17;18.20;1.00
15969;DHT22;8085;53.472;9.794;2022-10-16T11:45:50;18.00;1.00
15969;DHT22;8085;53.472;9.794;2022-10-16T11:48:24;18.30;1.00
15969;DHT22;8085;53.472;9.794;2022-10-16T11:50:53;18.60;1.00
15969;DHT22;8085;53.472;9.794;2022-10-16T11:53:35;18.80;99.90
15969;DHT22;8085;53.472;9.794;2022-10-16T11:56:05;18.90;1.00
15969;DHT22;8085;53.472;9.794;2022-10-16T11:58:36;18.70;1.00
15969;DHT22;8085;53.472;9.794;2022-10-16T12:01:16;18.70;1.00
15969;DHT22;8085;53.472;9.794;2022-10-16T12:03:46;18.50;99.90
15969;DHT22;8085;53.472;9.794;2022-10-16T12:06:25;18.10;99.90
15969;DHT22;8085;53.472;9.794;2022-10-16T12:08:59;18.10;99.90
15969;DHT22;8085;53.472;9.794;2022-10-16T12:11:37;18.30;1.00
15969;DHT22;8085;53.472;9.794;2022-10-16T12:14:07;18.40;1.00
15969;DHT22;8085;53.472;9.794;2022-10-16T12:16:52;18.70;1.00
15969;DHT22;8085;53.472;9.794;2022-10-16T12:19:21;18.60;1.00
15969;DHT22;8085;53.472;9.794;2022-10-16T12:21:50;18.40;1.00
15969;DHT22;8085;53.472;9.794;2022-10-16T12:24:36;17.90;28.70
15969;DHT22;8085;53.472;9.794;2022-10-16T12:27:05;18.00;1.00
15969;DHT22;8085;53.472;9.794;2022-10-16T12:29:35;18.10;1.00
15969;DHT22;8085;53.472;9.794;2022-10-16T12:32:04;18.10;1.00
15969;DHT22;8085;53.472;9.794;2022-10-16T12:34:38;18.30;1.00
15969;DHT22;8085;53.472;9.794;2022-10-16T12:37:12;18.10;1.00
15969;DHT22;8085;53.472;9.794;2022-10-16T12:39:41;18.10;1.00
15969;DHT22;8085;53.472;9.794;2022-10-16T12:42:21;18.20;1.00
15969;DHT22;8085;53.472;9.794;2022-10-16T12:44:49;18.40;1.00
15969;DHT22;8085;53.472;9.794;2022-10-16T12:47:21;18.40;1.00
15969;DHT22;8085;53.472;9.794;2022-10-16T12:49:50;18.40;1.00
15969;DHT22;8085;53.472;9.794;2022-10-16T12:52:26;18.00;1.00
15969;DHT22;8085;53.472;9.794;2022-10-16T12:54:57;18.10;99.90
15969;DHT22;8085;53.472;9.794;2022-10-16T12:57:37;18.20;1.00
15969;DHT22;8085;53.472;9.794;2022-10-16T13:00:15;18.00;1.00
15969;DHT22;8085;53.472;9.794;2022-10-16T13:03:13;17.70;99.90
15969;DHT22;8085;53.472;9.794;2022-10-16T13:05:57;17.80;99.90
15969;DHT22;8085;53.472;9.794;2022-10-16T13:08:38;17.90;91.90
15969;DHT22;8085;53.472;9.794;2022-10-16T13:11:22;18.20;1.00
15969;DHT22;8085;53.472;9.794;2022-10-16T13:14:04;18.30;1.00
15969;DHT22;8085;53.472;9.794;2022-10-16T13:16:49;18.40;1.00
15969;DHT22;8085;53.472;9.794;2022-10-16T13:19:28;18.50;99.90
15969;DHT22;8085;53.472;9.794;2022-10-16T13:22:00;18.30;1.00
15969;DHT22;8085;53.472;9.794;2022-10-16T13:24:54;18.30;99.90
15969;DHT22;8085;53.472;9.794;2022-10-16T13:27:31;18.30;99.90
15969;DHT22;8085;53.472;9.794;2022-10-16T13:30:11;18.30;99.90
15969;DHT22;8085;53.472;9.794;2022-10-16T13:32:38;18.20;99.90
15969;DHT22;8085;53.472;9.794;2022-10-16T13:35:18;18.20;1.00
15969;DHT22;8085;53.472;9.794;2022-10-16T13:37:46;17.90;1.00
15969;DHT22;8085;53.472;9.794;2022-10-16T13:40:19;17.80;99.90
15969;DHT22;8085;53.472;9.794;2022-10-16T13:42:48;18.00;1.00
15969;DHT22;8085;53.472;9.794;2022-10-16T13:45:19;17.70;99.90
15969;DHT22;8085;53.472;9.794;2022-10-16T13:47:46;17.70;1.00
15969;DHT22;8085;53.472;9.794;2022-10-16T13:50:15;17.80;99.90
15969;DHT22;8085;53.472;9.794;2022-10-16T13:52:42;18.00;90.20
15969;DHT22;8085;53.472;9.794;2022-10-16T13:55:11;17.90;99.90
15969;DHT22;8085;53.472;9.794;2022-10-16T13:57:38;17.90;99.90
15969;DHT22;8085;53.472;9.794;2022-10-16T14:00:20;18.00;99.90
15969;DHT22;8085;53.472;9.794;2022-10-16T14:02:51;18.00;99.90
15969;DHT22;8085;53.472;9.794;2022-10-16T14:05:19;18.00;99.90
15969;DHT22;8085;53.472;9.794;2022-10-16T14:07:49;18.00;99.90
15969;DHT22;8085;53.472;9.794;2022-10-16T14:10:22;18.10;1.00
15969;DHT22;8085;53.472;9.794;2022-10-16T14:12:58;18.10;1.00
15969;DHT22;8085;53.472;9.794;2022-10-16T14:15:27;18.10;1.00
15969;DHT22;8085;53.472;9.794;2022-10-16T14:17:54;18.20;99.90
15969;DHT22;8085;53.472;9.794;2022-10-16T14:20:25;18.10;99.90
15969;DHT22;8085;53.472;9.794;2022-10-16T14:22:59;18.00;1.00
15969;DHT22;8085;53.472;9.794;2022-10-16T14:25:29;18.00;93.70
15969;DHT22;8085;53.472;9.794;2022-10-16T14:27:57;18.00;99.90
15969;DHT22;8085;53.472;9.794;2022-10-16T14:30:27;17.80;1.00
15969;DHT22;8085;53.472;9.794;2022-10-16T14:32:55;17.60;99.90
15969;DHT22;8085;53.472;9.794;2022-10-16T14:35:25;17.40;99.90
15969;DHT22;8085;53.472;9.794;2022-10-16T14:37:53;17.30;1.00
15969;DHT22;8085;53.472;9.794;2022-10-16T14:40:23;17.20;99.90
15969;DHT22;8085;53.472;9.794;2022-10-16T14:42:51;17.10;99.90
15969;DHT22;8085;53.472;9.794;2022-10-16T14:45:19;17.10;1.00
15969;DHT22;8085;53.472;9.794;2022-10-16T14:47:50;17.10;1.00
15969;DHT22;8085;53.472;9.794;2022-10-16T14:50:18;17.00;1.00
15969;DHT22;8085;53.472;9.794;2022-10-16T14:52:45;17.00;1.00
15969;DHT22;8085;53.472;9.794;2022-10-16T14:55:12;17.10;1.00
15969;DHT22;8085;53.472;9.794;2022-10-16T14:57:39;17.20;1.00
15969;DHT22;8085;53.472;9.794;2022-10-16T15:00:15;17.30;99.90
15969;DHT22;8085;53.472;9.794;2022-10-16T15:02:42;17.30;99.90
15969;DHT22;8085;53.472;9.794;2022-10-16T15:05:17;17.30;99.90
15969;DHT22;8085;53.472;9.794;2022-10-16T15:07:45;17.30;99.90
15969;DHT22;8085;53.472;9.794;2022-10-16T15:10:12;17.30;1.00
15969;DHT22;8085;53.472;9.794;2022-10-16T15:12:40;17.30;99.90
15969;DHT22;8085;53.472;9.794;2022-10-16T15:15:24;17.20;1.00
15969;DHT22;8085;53.472;9.794;2022-10-16T15:17:53;17.20;1.00
15969;DHT22;8085;53.472;9.794;2022-10-16T15:20:23;17.10;1.00
15969;DHT22;8085;53.472;9.794;2022-10-16T15:22:50;17.10;1.00
15969;DHT22;8085;53.472;9.794;2022-10-16T15:25:33;17.00;1.00
15969;DHT22;8085;53.472;9.794;2022-10-16T15:28:02;16.90;1.00
15969;DHT22;8085;53.472;9.794;2022-10-16T15:30:29;16.90;99.90
15969;DHT22;8085;53.472;9.794;2022-10-16T15:32:56;16.80;1.00
15969;DHT22;8085;53.472;9.794;2022-10-16T15:35:24;16.80;1.00
15969;DHT22;8085;53.472;9.794;2022-10-16T15:37:51;16.70;1.00
15969;DHT22;8085;53.472;9.794;2022-10-16T15:40:19;16.60;1.00
15969;DHT22;8085;53.472;9.794;2022-10-16T15:42:46;16.50;1.00
15969;DHT22;8085;53.472;9.794;2022-10-16T15:45:13;16.50;1.00
15969;DHT22;8085;53.472;9.794;2022-10-16T15:47:41;16.40;1.00
15969;DHT22;8085;53.472;9.794;2022-10-16T15:50:10;16.40;1.00
15969;DHT22;8085;53.472;9.794;2022-10-16T15:52:39;16.30;1.00
15969;DHT22;8085;53.472;9.794;2022-10-16T15:55:07;16.10;1.00
15969;DHT22;8085;53.472;9.794;2022-10-16T15:57:33;16.10;1.00
15969;DHT22;8085;53.472;9.794;2022-10-16T16:00:05;16.00;1.00
15969;DHT22;8085;53.472;9.794;2022-10-16T16:02:32;15.90;1.00
15969;DHT22;8085;53.472;9.794;2022-10-16T16:04:59;15.80;1.00
15969;DHT22;8085;53.472;9.794;2022-10-16T16:07:25;15.70;1.00
15969;DHT22;8085;53.472;9.794;2022-10-16T16:09:54;15.70;1.00